Aeroporto :
LOGIN :

Iscrizione | Disclaimer

   EN    FR    IT 

 










Sommario :    VFR   VFR Marginale   IFR   IFR Intensivo   IFR Molto Intensivo
Visibilità : 
Base nubi : 
>= 8 km
>= 3000ft
5 / 8 km
1000 / 3000 ft
1500m / 5 km
500 / 1000 ft
800 / 1500m
200 / 500 ft
< 800m
< 200 ft
Simboli :   Temporali  Nebbia  Neve Forte  Precipitazioni Forti  Vento > 20 kt
SIGMETs :   Varie  Temporali  Ghiacco  Turbolenza  Onda orograficha  Ceneri Vulcaniche







- Altitudine del aeroporto : 257 ft
- Codice IATA : MAN
- Carte del aeroporto


EGCC - Manchester

ULTIMO METAR :
  • 210420Z AUTO 11003KT 9999 NCD 07/04 Q1024 NOSIG

METARs OBSOLETI :
  • 210350Z AUTO 09002KT 9999 NCD 08/04 Q1024 NOSIG
  • 210320Z AUTO VRB01KT 9999 NCD 09/04 Q1025 NOSIG
  • 210250Z AUTO 32002KT 9999 NCD 09/04 Q1025 NOSIG
  • 210220Z AUTO 28004KT 250V320 9999 NCD 10/05 Q1025
  • 210150Z AUTO 11004KT 9999 NCD 11/04 Q1025 NOSIG

TAF TAF EGCC
Valido dal 21 a 00 ore il 22 a 06 ore UTC


202257Z 2100/2206 VRB04KT 9999 FEW045
PROB30
TEMPO 2103/2108 8000
ATIS : +44 161 499 2324
Nessun NOTAM noto per questo aeroporto.



MetMap, La meteo Aeronautica in un colpo d'occhio ! - Copyright ORBIFLY Dicembre 2007 - Disclaimer

ORBIFLY MET'MAP TEAM :

Programmazione e sviluppo : Alexandra Zaïnal
Concezione e sviluppo : Baudouin d'Aumeries
Co-Programmazione e sviluppo : Marc-Olivier Méhu
Supporto tecnico e logistico : Manuel Goepfert
Aiuto per la traduzione : Arnaldo La Scala

Contatto : metmap@orbifly.com




FONTI E CREDITI :

   NOAA